Portada
METAR-TAF:

Aeropuertos :

Santa Cruz de la Sierra, Bolivia

Aeropuerto El Trompillo

latitud: 17-48S, longitud: 063-11W, altitud: 418 m

Observación

El informe se hizo hace 5 horas y 52 minutos, a las 23:00 UTC
Viento 8 kt del noroeste
Temperatura 31°C
Humedad 52%
Presión 1006 hPa
Visibilidad: 8000 m

METAR: SLET 292300Z 32008KT 8000 NSC 31/20 Q1006

Hora: 00:52 (04:52 UTC)

Pronóstico

El informe se hizo hace 6 horas y 17 minutos, a las 22:35 UTC
Pronóstico válido del 30 a las 00 UTC al 30 a las 24 UTC
Viento 6 kt del norte-noroeste
Visibilidad: 8000 m
Evolucionando progresivamente
del 30 a las 13 UTC al 30 a las 16 UTC
Viento 16 kt del norte-noroeste
Visibilidad: 6000 m
Nubes dispersas a una altura de 2700 ft
Evolucionando progresivamente
del 30 a las 20 UTC al 30 a las 22 UTC
Viento 4 kt del norte-noroeste

TAF: SLET 292235Z 3000/3024 34006KT 8000 TX38/3020Z TN24/3011Z BECMG 3013/3016 34016KT 6000 SCT027 BECMG 3020/3022 33004KT

METAR-TAF

Observaciones y pronósticos meteorológicos de más de 4000 aeropuertos (mensajes METAR y TAF).

Los puntos amarillos y rojos representan las estaciones disponibles.

Ponga el ratón en el punto deseado para ver el nombre de la estación.

Haga clic para ver las observaciones y los pronósticos meteorológicos.

Para cambiar el mapa : haga clic en los botones verdes con una cruz de color negro para hacer un zoom, en el botón verde con un guión para alejar o en las flechas verdes para mapas adyacentes.


METAR-TAF: